Terminal Aerodrome Forecast
Issued by NWS Wilmington, NC

Home | Current Version | Previous Version | Text Only | Print | Product List | Glossary On
Versions: 1 2 3 4 5 6 7 8 9 10 11 12 13 14 15 16 17 18 19 20 21 22 23 24 25 26 27 28
000
FTUS42 KILM 262329
TAFILM
TAF
KILM 262329Z 2700/2724 20011KT P6SM VCSH SCT015 BKN100
     FM270600 20008KT 6SM -RA BR SCT008 SCT015 BKN040
      TEMPO 2706/2709 4SM -RA BR SCT008 BKN015
     FM270900 23007KT 3SM SHRA BR BKN008 BKN015 OVC040
      TEMPO 2710/2714 2SM TSRA BR SCT008 BKN015CB
     FM271400 24008KT 6SM -RA BKN007 OVC090
      TEMPO 2716/2718 24025KT 1SM +TSRA BKN012CB
     FM271800 34012G20KT 6SM -RA BKN008 OVC012=

USA.gov is the U.S. government's official web portal to all federal, state and local government web resources and services.